Time;durP1;ratioP1;P1;durP2;ratioP2;P2;SDS_P1;SDS_P2;PMS_P1;PMS_P2;Temp;Humidity;BMP_temperature;BMP_pressure;BME280_temperature;BME280_humidity;BME280_pressure;Samples;Min_cycle;Max_cycle;Signal;HPM_P1;HPM_P2
2022/01/25 00:08:54;;;;;;;19.27;14.00;;;;;;;6.34;53.58;99525.69;8382710;28;20293;-81
2022/01/25 00:26:06;;;;;;;13.80;12.40;;;;;;;6.22;54.15;99511.97;8381063;28;20227;-81
2022/01/25 00:30:26;;;;;;;15.07;12.50;;;;;;;6.00;54.35;99511.16;8391493;28;20328;-81
2022/01/25 00:34:29;;;;;;;19.70;15.60;;;;;;;6.02;54.18;99509.44;8432250;28;20232;-80
2022/01/25 00:38:34;;;;;;;19.70;15.73;;;;;;;5.98;53.94;99515.47;8415812;28;20223;-81
2022/01/25 00:42:37;;;;;;;21.40;16.10;;;;;;;5.86;53.95;99512.84;8414437;28;20245;-80
2022/01/25 00:46:40;;;;;;;16.53;11.93;;;;;;;5.87;54.18;99512.84;8414013;28;20545;-80
2022/01/25 00:50:43;;;;;;;14.97;10.80;;;;;;;5.92;54.27;99505.16;8414013;28;20257;-81
2022/01/25 00:54:48;;;;;;;13.73;10.23;;;;;;;5.90;53.76;99500.84;8414278;28;20297;-80
2022/01/25 00:58:51;;;;;;;15.00;10.63;;;;;;;5.90;54.07;99508.56;8413905;28;20243;-80
2022/01/25 01:02:55;;;;;;;15.47;11.40;;;;;;;5.84;53.87;99510.28;8414050;28;20230;-80
2022/01/25 01:07:01;;;;;;;16.47;11.73;;;;;;;5.87;53.77;99510.28;8413959;28;20423;-80
2022/01/25 01:11:08;;;;;;;17.50;12.73;;;;;;;5.89;53.77;99502.56;8414014;28;20412;-80
2022/01/25 01:15:22;;;;;;;21.23;12.43;;;;;;;5.87;53.77;99506.88;8413662;28;20226;-80
2022/01/25 01:32:58;;;;;;;17.47;12.70;;;;;;;5.79;53.95;99500.88;8413132;28;20226;-81
2022/01/25 01:37:31;;;;;;;15.50;12.63;;;;;;;5.44;55.54;99501.72;8412825;28;20218;-81
2022/01/25 01:41:55;;;;;;;14.37;11.97;;;;;;;5.43;56.18;99498.28;8413349;28;20226;-82
2022/01/25 01:46:18;;;;;;;13.00;11.30;;;;;;;5.62;55.15;99504.31;8414729;28;20423;-81
2022/01/25 01:50:29;;;;;;;14.43;10.77;;;;;;;5.63;55.00;99502.56;8415202;28;20210;-81
2022/01/25 01:54:44;;;;;;;13.47;10.70;;;;;;;5.73;54.63;99500.84;8414884;28;20207;-81
2022/01/25 01:58:47;;;;;;;12.40;11.10;;;;;;;5.66;54.77;99490.59;8412510;28;20238;-79
2022/01/25 02:02:51;;;;;;;14.13;11.33;;;;;;;5.55;54.26;99484.59;8412329;28;20237;-80
2022/01/25 02:07:03;;;;;;;12.93;11.50;;;;;;;5.60;54.73;99487.19;8412206;28;20226;-80
2022/01/25 02:11:06;;;;;;;12.73;10.30;;;;;;;5.65;54.31;99482.88;8412498;28;20233;-79
2022/01/25 02:15:10;;;;;;;11.03;9.83;;;;;;;5.57;54.39;99479.44;8412703;28;20230;-80
2022/01/25 02:23:36;;;;;;;13.23;10.07;;;;;;;5.59;54.01;99475.16;8412037;28;20222;-80
2022/01/25 02:27:39;;;;;;;12.53;9.80;;;;;;;5.53;53.82;99465.75;8412545;28;20260;-80
2022/01/25 02:31:47;;;;;;;11.97;10.63;;;;;;;5.41;54.04;99460.63;8412320;28;20242;-80
2022/01/25 02:35:50;;;;;;;12.87;9.97;;;;;;;5.37;53.61;99458.88;8412264;28;20239;-80
2022/01/25 02:39:58;;;;;;;12.87;10.53;;;;;;;5.36;53.64;99457.19;8412104;28;20231;-80
2022/01/25 02:44:04;;;;;;;14.27;11.27;;;;;;;5.38;53.60;99452.91;8412365;28;20419;-80
2022/01/25 02:52:30;;;;;;;18.00;10.40;;;;;;;5.18;53.38;99456.31;8418083;28;20237;-80
2022/01/25 02:56:36;;;;;;;12.00;9.30;;;;;;;5.30;53.33;99450.31;8417939;28;20226;-81
2022/01/25 03:00:39;;;;;;;10.40;9.30;;;;;;;5.30;53.30;99440.03;8417752;28;20235;-80
2022/01/25 03:04:42;;;;;;;14.37;10.37;;;;;;;5.26;53.64;99436.63;8417901;28;20418;-80
2022/01/25 03:08:46;;;;;;;21.13;10.73;;;;;;;5.05;53.69;99442.59;8417624;28;20235;-80
2022/01/25 03:12:54;;;;;;;13.40;10.53;;;;;;;5.07;54.04;99437.47;8417709;28;20498;-80
2022/01/25 03:17:10;;;;;;;11.87;10.63;;;;;;;5.08;54.21;99436.59;8417786;28;20227;-81
2022/01/25 03:25:35;;;;;;;12.73;9.43;;;;;;;4.95;54.26;99419.44;8406607;28;20540;-80
2022/01/25 03:29:42;;;;;;;12.90;9.90;;;;;;;5.22;54.08;99439.19;8416942;28;20242;-81
2022/01/25 03:33:48;;;;;;;12.60;9.97;;;;;;;5.16;53.73;99432.34;8416834;28;20234;-80
2022/01/25 03:37:52;;;;;;;12.00;10.13;;;;;;;5.13;53.38;99431.47;8416519;28;20242;-81
2022/01/25 03:41:57;;;;;;;12.07;9.73;;;;;;;5.05;54.40;99437.47;8416713;28;20329;-81
2022/01/25 03:46:06;;;;;;;14.53;10.30;;;;;;;5.09;54.19;99435.75;8416713;28;20580;-80
2022/01/25 03:50:09;;;;;;;11.73;10.50;;;;;;;5.12;54.03;99435.72;8416124;28;20230;-81
2022/01/25 03:54:12;;;;;;;12.47;10.10;;;;;;;5.15;53.94;99432.34;8416636;28;20418;-81
2022/01/25 03:58:20;;;;;;;11.07;9.47;;;;;;;5.15;53.26;99433.19;8416206;28;20223;-81
2022/01/25 04:02:27;;;;;;;12.40;9.97;;;;;;;4.98;53.40;99428.03;8416178;28;20230;-80
2022/01/25 04:06:32;;;;;;;12.47;10.43;;;;;;;5.02;53.50;99422.03;8416186;28;20568;-80
2022/01/25 04:10:35;;;;;;;11.60;10.40;;;;;;;4.88;53.74;99416.03;8415586;28;20234;-81
2022/01/25 04:14:38;;;;;;;12.33;9.97;;;;;;;4.92;53.99;99417.75;8415751;28;20564;-81
2022/01/25 04:18:58;;;;;;;12.43;10.37;;;;;;;4.99;53.75;99411.78;8415633;28;20242;-80
2022/01/25 04:27:21;;;;;;;12.50;10.20;;;;;;;4.92;53.71;99410.06;8415334;28;20541;-79
2022/01/25 04:31:24;;;;;;;15.70;10.47;;;;;;;4.94;53.98;99410.91;8415495;28;20241;-81
2022/01/25 04:35:45;;;;;;;12.73;10.17;;;;;;;4.84;54.04;99404.91;8415311;28;20250;-80
2022/01/25 04:52:57;;;;;;;15.43;11.53;;;;;;;4.88;52.81;99416.88;8414827;28;20530;-81
2022/01/25 04:57:13;;;;;;;12.50;10.50;;;;;;;4.70;53.21;99412.59;8414634;28;20553;-81
2022/01/25 05:01:20;;;;;;;14.27;11.30;;;;;;;4.75;52.86;99424.56;8414262;28;20234;-80
2022/01/25 05:05:30;;;;;;;15.03;11.30;;;;;;;4.67;53.13;99417.69;8414710;28;20451;-80
2022/01/25 05:09:36;;;;;;;14.57;12.00;;;;;;;4.72;53.01;99411.72;8414042;28;20419;-80
2022/01/25 05:13:45;;;;;;;14.63;11.67;;;;;;;4.60;53.31;99420.25;8413563;28;20238;-81
2022/01/25 05:18:02;;;;;;;15.97;12.20;;;;;;;4.49;53.19;99421.06;8414404;28;20234;-80
2022/01/25 05:22:06;;;;;;;19.67;16.73;;;;;;;4.54;53.09;99409.97;8414150;28;20246;-80
2022/01/25 05:26:12;;;;;;;26.23;20.60;;;;;;;4.58;53.32;99406.56;8414157;28;20237;-80
2022/01/25 05:30:15;;;;;;;22.10;17.80;;;;;;;4.60;52.51;99412.53;8414038;28;20235;-80
2022/01/25 05:34:18;;;;;;;17.33;15.53;;;;;;;4.60;52.75;99409.97;8414026;28;20237;-80
2022/01/25 05:38:21;;;;;;;16.67;14.53;;;;;;;4.73;52.85;99406.59;8414034;28;20230;-80
2022/01/25 05:46:47;;;;;;;16.77;13.93;;;;;;;4.66;53.44;99404.84;8418236;28;20432;-82
2022/01/25 05:50:50;;;;;;;17.20;14.53;;;;;;;4.67;53.62;99421.97;8413557;28;20254;-82
2022/01/25 05:54:56;;;;;;;15.90;13.60;;;;;;;4.73;54.09;99421.13;8412976;28;20226;-82
2022/01/25 05:59:01;;;;;;;15.20;13.47;;;;;;;4.72;54.13;99427.09;8413273;28;20296;-82
2022/01/25 06:03:06;;;;;;;16.73;12.70;;;;;;;4.79;53.86;99429.69;8413801;28;20233;-81
2022/01/25 06:07:10;;;;;;;14.80;12.47;;;;;;;4.81;54.27;99425.41;8412925;28;20351;-81
2022/01/25 06:11:15;;;;;;;14.27;12.03;;;;;;;4.93;54.35;99428.88;8434683;28;20226;-81
2022/01/25 06:15:20;;;;;;;22.53;15.33;;;;;;;4.85;54.44;99427.13;8445948;28;20256;-80
2022/01/25 06:19:23;;;;;;;20.07;15.43;;;;;;;4.73;55.06;99432.25;8441230;28;20524;-79
2022/01/25 06:23:26;;;;;;;24.83;19.40;;;;;;;4.83;55.60;99420.28;8415843;28;20226;-81
2022/01/25 06:27:29;;;;;;;25.40;20.67;;;;;;;4.77;56.29;99413.44;8419941;28;20230;-81
2022/01/25 06:31:33;;;;;;;29.27;21.87;;;;;;;5.00;56.05;99428.03;8419447;28;20229;-82
2022/01/25 06:35:37;;;;;;;30.83;20.43;;;;;;;4.78;56.56;99412.59;8418292;28;20404;-82
2022/01/25 06:39:40;;;;;;;28.27;21.70;;;;;;;4.92;56.69;99425.44;8419186;28;20230;-81
2022/01/25 06:43:46;;;;;;;25.07;19.23;;;;;;;4.89;56.68;99422.88;8419133;28;20534;-81
2022/01/25 06:47:52;;;;;;;28.43;18.53;;;;;;;4.46;57.20;99423.63;8418542;28;20254;-82
2022/01/25 06:51:55;;;;;;;36.70;21.00;;;;;;;4.59;57.30;99429.66;8418655;28;20514;-82
2022/01/25 06:56:01;;;;;;;25.47;18.77;;;;;;;4.66;57.68;99427.94;8418875;28;20222;-81
2022/01/25 07:00:07;;;;;;;29.53;20.90;;;;;;;4.69;58.13;99426.25;8417690;28;20565;-81
2022/01/25 07:04:11;;;;;;;26.93;21.87;;;;;;;4.67;57.98;99427.97;8418237;28;20237;-82
2022/01/25 07:08:15;;;;;;;28.30;21.77;;;;;;;4.88;57.76;99423.72;8416943;28;20336;-82
2022/01/25 07:12:17;;;;;;;27.10;21.17;;;;;;;4.81;57.39;99435.69;8418389;28;20410;-83
2022/01/25 07:16:20;;;;;;;29.87;21.27;;;;;;;4.33;58.57;99447.50;8418036;28;20235;-83
2022/01/25 07:20:25;;;;;;;74.87;24.20;;;;;;;4.02;60.02;99447.34;8417989;28;20246;-82
2022/01/25 07:24:28;;;;;;;31.97;21.60;;;;;;;4.07;60.42;99452.50;8417680;28;20240;-81
2022/01/25 07:28:33;;;;;;;30.77;23.77;;;;;;;4.50;58.22;99445.88;8416971;28;20541;-81
2022/01/25 07:32:36;;;;;;;26.40;20.83;;;;;;;4.57;58.65;99443.31;8435827;28;20234;-82
2022/01/25 07:36:43;;;;;;;71.97;21.77;;;;;;;3.84;59.57;99445.53;8450309;28;20237;-82
2022/01/25 07:40:56;;;;;;;29.83;22.40;;;;;;;4.15;59.94;99438.03;8451037;28;20237;-79
2022/01/25 07:45:00;;;;;;;28.47;22.53;;;;;;;4.61;58.83;99435.66;8450372;28;20230;-82
2022/01/25 07:49:06;;;;;;;32.50;22.10;;;;;;;4.29;59.50;99425.25;8450089;28;20233;-81
2022/01/25 07:53:13;;;;;;;83.70;22.67;;;;;;;3.90;60.90;99439.56;8450769;28;20229;-81
2022/01/25 07:57:16;;;;;;;35.67;22.57;;;;;;;4.08;60.35;99441.41;8450320;28;20327;-82
2022/01/25 08:01:20;;;;;;;30.87;22.73;;;;;;;4.52;59.72;99447.59;8421781;28;20235;-82
2022/01/25 08:05:26;;;;;;;41.47;23.87;;;;;;;4.69;58.83;99446.78;8422322;28;20222;-83
2022/01/25 08:09:44;;;;;;;58.00;23.80;;;;;;;4.56;59.01;99447.59;8382823;28;20222;-82
2022/01/25 08:14:30;;;;;;;48.17;22.70;;;;;;;4.47;59.43;99452.69;8431598;28;20227;-83
2022/01/25 08:18:44;;;;;;;43.03;24.50;;;;;;;4.34;59.85;99463.75;8426393;28;20234;-83
2022/01/25 08:23:19;;;;;;;68.97;22.67;;;;;;;4.52;58.82;99457.84;8431647;28;20217;-82
2022/01/25 08:27:42;;;;;;;32.57;21.70;;;;;;;4.74;58.21;99451.94;8431167;28;20259;-81
2022/01/25 08:31:47;;;;;;;28.40;21.33;;;;;;;4.76;58.14;99445.09;8446379;28;20241;-82
2022/01/25 08:36:14;;;;;;;54.63;23.77;;;;;;;4.85;57.70;99444.25;8445824;28;20222;-81
2022/01/25 08:40:19;;;;;;;54.50;22.77;;;;;;;4.56;58.80;99442.47;8429108;28;20516;-81
2022/01/25 08:44:26;;;;;;;34.33;22.23;;;;;;;7.05;72.87;99436.97;8435981;28;20485;-81
2022/01/25 08:48:50;;;;;;;39.07;20.57;;;;;;;7.54;55.93;99443.50;8423826;28;20234;-81
2022/01/25 08:52:57;;;;;;;31.57;20.30;;;;;;;7.43;52.46;99443.56;8420455;28;20223;-81
2022/01/25 08:57:17;;;;;;;45.83;23.60;;;;;;;6.38;52.87;99447.63;8411297;28;20282;-81
2022/01/25 09:01:41;;;;;;;38.83;22.73;;;;;;;5.78;55.37;99450.31;8387787;28;20238;-82
2022/01/25 09:05:45;;;;;;;36.37;23.57;;;;;;;5.75;55.92;99448.59;8415682;28;20329;-82
2022/01/25 09:09:48;;;;;;;41.63;22.90;;;;;;;5.53;56.10;99439.19;8414798;28;20234;-83
2022/01/25 09:13:51;;;;;;;56.37;24.27;;;;;;;5.29;57.16;99446.91;8416131;28;20430;-82
2022/01/25 09:17:56;;;;;;;51.13;24.60;;;;;;;4.42;59.54;99462.09;8414445;28;20230;-82
2022/01/25 09:21:58;;;;;;;48.40;25.43;;;;;;;4.33;60.46;99459.47;8418797;28;20260;-82
2022/01/25 09:26:02;;;;;;;54.73;25.87;;;;;;;4.47;59.79;99440.75;8439626;28;20230;-83
2022/01/25 09:30:07;;;;;;;88.40;25.10;;;;;;;4.34;59.55;99444.09;8448567;28;20242;-82
2022/01/25 09:34:12;;;;;;;52.43;25.83;;;;;;;4.54;59.81;99446.72;8444417;28;20218;-82
2022/01/25 09:38:15;;;;;;;40.37;26.23;;;;;;;4.64;60.54;99457.88;8427974;28;20221;-83
2022/01/25 09:42:20;;;;;;;34.50;24.40;;;;;;;4.77;59.43;99454.50;8428036;28;20238;-83
2022/01/25 09:46:23;;;;;;;32.60;24.50;;;;;;;4.84;59.56;99453.69;8423739;28;20438;-82
2022/01/25 09:50:28;;;;;;;33.30;25.47;;;;;;;4.57;60.58;99458.72;8431732;28;20226;-84
2022/01/25 09:54:32;;;;;;;88.77;27.17;;;;;;;4.29;60.34;99456.03;8447066;28;20222;-83
2022/01/25 09:58:36;;;;;;;54.00;26.63;;;;;;;4.29;61.30;99463.72;8423758;28;20515;-84
2022/01/25 10:02:45;;;;;;;52.23;26.70;;;;;;;4.37;61.39;99454.34;8426756;28;20254;-81
2022/01/25 10:06:51;;;;;;;47.70;26.47;;;;;;;4.54;60.98;99451.03;8425885;28;20231;-83
2022/01/25 10:10:56;;;;;;;50.90;27.00;;;;;;;4.52;60.70;99462.97;8425191;28;20237;-82
2022/01/25 10:15:10;;;;;;;75.77;28.20;;;;;;;4.39;60.49;99462.91;8424703;28;20230;-83
2022/01/25 10:19:41;;;;;;;43.03;28.07;;;;;;;4.75;60.79;99469.03;8427054;28;20233;-82
2022/01/25 10:24:03;;;;;;;42.60;26.90;;;;;;;4.47;60.82;99473.22;8426744;28;20573;-82
2022/01/25 10:28:12;;;;;;;66.97;26.03;;;;;;;4.13;61.88;99472.19;8427958;28;20245;-82
2022/01/25 10:32:15;;;;;;;37.20;26.60;;;;;;;4.45;61.92;99473.19;8423732;28;20234;-83
2022/01/25 10:36:20;;;;;;;49.00;27.00;;;;;;;4.28;62.06;99469.69;8429863;28;20230;-83
2022/01/25 10:40:37;;;;;;;40.03;27.40;;;;;;;4.32;61.79;99461.16;8423686;28;20542;-82
2022/01/25 10:44:48;;;;;;;36.97;27.73;;;;;;;4.58;61.09;99461.28;8422311;28;20517;-83
2022/01/25 10:48:53;;;;;;;38.23;27.67;;;;;;;4.82;60.90;99459.66;8429409;28;20268;-82
2022/01/25 10:53:06;;;;;;;31.93;26.20;;;;;;;4.93;60.17;99469.94;8427443;28;20231;-83
2022/01/25 10:57:19;;;;;;;37.63;27.53;;;;;;;4.78;60.41;99448.53;8409095;28;20255;-82
2022/01/25 11:01:33;;;;;;;38.80;27.73;;;;;;;4.72;60.82;99463.88;8394254;28;20242;-81
2022/01/25 11:05:39;;;;;;;39.17;28.13;;;;;;;4.25;62.23;99462.84;8393408;28;20247;-81
2022/01/25 11:09:47;;;;;;;65.80;28.70;;;;;;;4.29;61.07;99448.34;8389782;28;20235;-82
2022/01/25 11:13:53;;;;;;;43.30;29.97;;;;;;;4.10;63.38;99458.50;8389830;28;20302;-82
2022/01/25 11:17:56;;;;;;;47.20;29.13;;;;;;;4.10;62.67;99455.09;8404856;28;20227;-82
2022/01/25 11:22:00;;;;;;;46.23;29.57;;;;;;;3.95;64.21;99453.28;8433554;28;20552;-80
2022/01/25 11:26:05;;;;;;;39.13;28.57;;;;;;;4.89;61.21;99446.84;8436037;28;20226;-81
2022/01/25 11:30:11;;;;;;;48.63;29.37;;;;;;;4.44;61.35;99442.44;8447649;28;20229;-80
2022/01/25 11:34:15;;;;;;;40.13;27.67;;;;;;;4.69;61.42;99446.78;8448785;28;20223;-82
2022/01/25 11:38:31;;;;;;;34.73;27.10;;;;;;;4.90;59.90;99440.00;8445635;28;20230;-82
2022/01/25 11:42:38;;;;;;;41.43;28.67;;;;;;;4.97;60.14;99438.28;8457645;28;20234;-82
2022/01/25 11:46:45;;;;;;;47.40;28.03;;;;;;;4.64;61.00;99440.78;8455976;28;20237;-80
2022/01/25 11:50:48;;;;;;;66.90;29.77;;;;;;;4.80;60.49;99435.72;8454898;28;20234;-82
2022/01/25 11:54:53;;;;;;;34.57;27.63;;;;;;;5.13;60.21;99442.59;8450717;28;20275;-82
2022/01/25 11:58:57;;;;;;;49.13;30.37;;;;;;;5.17;59.18;99440.91;8421935;28;20235;-82
2022/01/25 12:03:04;;;;;;;42.43;29.53;;;;;;;5.15;60.45;99440.88;8419569;28;20495;-83
2022/01/25 12:07:24;;;;;;;38.93;28.50;;;;;;;5.32;59.86;99433.19;8423482;28;20246;-82
2022/01/25 12:11:37;;;;;;;62.83;31.87;;;;;;;4.57;61.13;99427.91;8422180;28;20241;-83
2022/01/25 12:15:41;;;;;;;42.23;31.03;;;;;;;4.99;60.70;99426.31;8420231;28;20223;-82
2022/01/25 12:19:48;;;;;;;38.93;28.60;;;;;;;4.96;61.08;99421.19;8419136;28;20239;-82
2022/01/25 12:24:18;;;;;;;40.93;29.60;;;;;;;5.14;59.89;99417.75;8414834;28;20278;-82
2022/01/25 12:28:27;;;;;;;42.83;30.97;;;;;;;5.22;59.89;99411.78;8403814;28;20227;-82
2022/01/25 12:32:33;;;;;;;37.27;29.97;;;;;;;5.23;60.20;99412.63;8383948;28;20239;-82
2022/01/25 12:36:43;;;;;;;39.47;30.07;;;;;;;5.44;59.69;99407.50;8398326;28;20260;-82
2022/01/25 12:41:01;;;;;;;37.40;28.57;;;;;;;5.44;59.73;99409.22;8419577;28;20235;-83
2022/01/25 12:45:05;;;;;;;33.93;26.77;;;;;;;5.51;59.49;99408.34;8417872;28;20231;-82
2022/01/25 12:49:14;;;;;;;36.03;26.90;;;;;;;5.43;59.43;99405.78;8418915;28;20235;-83
2022/01/25 12:53:23;;;;;;;42.53;29.70;;;;;;;5.53;59.42;99409.22;8432465;28;20241;-84
2022/01/25 12:57:26;;;;;;;40.17;29.53;;;;;;;5.40;59.74;99402.38;8432174;28;20289;-83
2022/01/25 13:01:30;;;;;;;40.97;29.07;;;;;;;5.39;59.18;99406.66;8429592;28;20234;-84
2022/01/25 13:05:42;;;;;;;39.87;28.97;;;;;;;5.59;58.78;99395.50;8432556;28;20211;-84
2022/01/25 13:09:58;;;;;;;36.80;27.53;;;;;;;5.28;59.56;99395.53;8436755;28;20226;-86
2022/01/25 13:14:31;;;;;;;39.10;29.47;;;;;;;5.46;59.42;99394.66;8435467;28;20403;-83
2022/01/25 13:18:40;;;;;;;36.77;29.20;;;;;;;5.56;59.57;99396.38;8426427;28;20399;-83
2022/01/25 13:22:45;;;;;;;38.53;29.80;;;;;;;5.64;59.29;99389.50;8417880;28;20239;-81
2022/01/25 13:26:59;;;;;;;39.00;29.13;;;;;;;5.55;58.82;99391.22;8417634;28;20226;-84
2022/01/25 13:31:09;;;;;;;40.30;30.07;;;;;;;5.54;59.54;99385.25;8417266;28;20507;-83
2022/01/25 13:35:19;;;;;;;37.27;28.53;;;;;;;5.43;59.60;99379.25;8383341;28;20282;-84
2022/01/25 13:39:26;;;;;;;36.97;29.50;;;;;;;5.64;58.88;99379.22;8385097;28;20227;-83
2022/01/25 13:48:14;;;;;;;35.17;27.03;;;;;;;5.64;59.07;99370.66;8281339;28;20229;-83
2022/01/25 13:52:17;;;;;;;35.53;28.53;;;;;;;5.64;59.26;99381.78;8337039;28;20241;-82
2022/01/25 13:56:22;;;;;;;36.00;26.53;;;;;;;5.72;59.04;99374.06;8417007;28;20537;-82
2022/01/25 14:00:27;;;;;;;34.20;26.00;;;;;;;5.71;58.76;99376.63;8415200;28;20313;-82
2022/01/25 14:04:33;;;;;;;33.77;26.53;;;;;;;5.67;58.75;99375.78;8418160;28;20440;-83
2022/01/25 14:08:40;;;;;;;44.63;27.40;;;;;;;5.13;59.31;99373.25;8418516;28;20510;-82
2022/01/25 14:21:55;;;;;;;33.03;26.93;;;;;;;5.77;58.46;99368.88;8416331;28;20230;-84
2022/01/25 14:26:01;;;;;;;33.90;27.00;;;;;;;5.57;58.79;99374.09;8415775;28;20237;-82
2022/01/25 14:30:04;;;;;;;39.07;30.83;;;;;;;5.65;58.35;99370.66;8416928;28;20230;-82
2022/01/25 14:34:11;;;;;;;42.90;33.57;;;;;;;5.71;58.35;99361.19;8416223;28;20404;-83
2022/01/25 14:38:20;;;;;;;32.83;26.47;;;;;;;5.70;58.17;99372.34;8416324;28;20249;-82
2022/01/25 14:42:24;;;;;;;34.93;27.27;;;;;;;5.67;58.24;99378.34;8415528;28;20237;-83
2022/01/25 14:46:30;;;;;;;32.80;26.80;;;;;;;5.68;58.58;99369.78;8422262;28;20234;-83
2022/01/25 14:50:35;;;;;;;35.10;26.73;;;;;;;5.70;58.23;99368.06;8422976;28;20245;-83
2022/01/25 14:54:40;;;;;;;31.40;24.03;;;;;;;5.56;58.21;99370.66;8424025;28;20278;-83
2022/01/25 15:03:06;;;;;;;27.17;22.73;;;;;;;5.59;58.24;99364.66;8435553;28;20230;-82
2022/01/25 15:07:12;;;;;;;27.33;22.63;;;;;;;5.76;58.26;99359.47;8442725;28;20433;-82
2022/01/25 15:11:16;;;;;;;32.10;23.67;;;;;;;5.68;57.83;99354.34;8458118;28;20267;-80
2022/01/25 15:15:25;;;;;;;26.70;22.63;;;;;;;5.74;57.88;99353.50;8446304;28;20226;-81
2022/01/25 15:19:28;;;;;;;24.53;20.77;;;;;;;5.64;57.63;99363.78;8449271;28;20425;-82
2022/01/25 15:23:35;;;;;;;26.00;20.97;;;;;;;5.65;57.75;99364.63;8426413;28;20241;-81
2022/01/25 15:27:40;;;;;;;28.43;23.60;;;;;;;5.64;57.50;99371.50;8431637;28;20231;-83
2022/01/25 15:31:43;;;;;;;29.27;22.87;;;;;;;5.70;57.50;99362.91;8434291;28;20234;-82
2022/01/25 15:35:47;;;;;;;28.73;21.93;;;;;;;5.65;57.81;99360.38;8436163;28;20231;-82
2022/01/25 15:39:52;;;;;;;30.40;24.93;;;;;;;5.70;57.83;99364.66;8433613;28;20286;-82
2022/01/25 15:43:58;;;;;;;32.13;25.17;;;;;;;5.71;57.67;99364.63;8429718;28;20226;-82
2022/01/25 15:48:02;;;;;;;31.43;24.97;;;;;;;5.73;58.09;99360.34;8440038;28;20226;-82
2022/01/25 15:52:07;;;;;;;31.80;24.07;;;;;;;5.63;57.74;99356.06;8437228;28;20235;-82
2022/01/25 15:56:14;;;;;;;32.80;24.37;;;;;;;5.71;57.62;99356.06;8441415;28;20253;-82
2022/01/25 16:00:17;;;;;;;33.33;24.80;;;;;;;5.75;58.30;99347.47;8436715;28;20534;-81
2022/01/25 16:04:21;;;;;;;34.90;25.17;;;;;;;5.66;58.18;99354.34;8439065;28;20230;-83
2022/01/25 16:08:26;;;;;;;31.77;24.73;;;;;;;5.60;58.45;99354.38;8435224;28;20409;-81
2022/01/25 16:12:31;;;;;;;31.80;27.85;;;;;;;6.11;57.05;99349.13;8432820;28;20420;-81
2022/01/25 16:16:35;;;;;;;31.57;24.97;;;;;;;5.75;58.20;99356.06;8433424;28;20237;-82
2022/01/25 16:20:39;;;;;;;31.03;24.77;;;;;;;5.63;58.30;99356.94;8441165;28;20234;-82
2022/01/25 16:24:43;;;;;;;29.40;23.03;;;;;;;5.70;58.51;99368.06;8450769;28;20233;-82
2022/01/25 16:28:49;;;;;;;32.00;25.37;;;;;;;5.73;58.28;99364.63;8452333;28;20532;-84
2022/01/25 16:32:53;;;;;;;40.70;27.70;;;;;;;5.71;58.26;99367.19;8446997;28;20230;-82
2022/01/25 16:36:57;;;;;;;31.97;25.30;;;;;;;5.72;58.16;99360.34;8421295;28;20226;-83
2022/01/25 16:41:00;;;;;;;34.87;25.90;;;;;;;5.72;58.61;99357.78;8431948;28;20404;-81
2022/01/25 16:45:06;;;;;;;37.57;27.70;;;;;;;5.67;58.69;99363.78;8434049;28;20231;-82
2022/01/25 16:49:09;;;;;;;37.87;28.40;;;;;;;5.71;58.54;99367.19;8439897;28;20226;-81
2022/01/25 16:53:12;;;;;;;52.77;38.53;;;;;;;5.67;58.80;99360.34;8424177;28;20228;-84
2022/01/25 16:57:15;;;;;;;51.67;40.07;;;;;;;5.64;58.69;99361.22;8432346;28;20225;-84
2022/01/25 17:01:21;;;;;;;40.10;30.47;;;;;;;5.67;58.47;99368.94;8424990;28;20283;-85
2022/01/25 17:05:24;;;;;;;34.97;26.53;;;;;;;5.66;58.37;99367.22;8414285;28;20340;-84
2022/01/25 17:09:27;;;;;;;35.67;27.13;;;;;;;5.67;58.81;99368.06;8413989;28;20277;-84
2022/01/25 17:13:30;;;;;;;35.23;26.97;;;;;;;5.71;58.46;99372.31;8419573;28;20282;-84
2022/01/25 17:17:34;;;;;;;39.80;30.87;;;;;;;5.75;58.54;99375.75;8423086;28;20218;-83
2022/01/25 17:21:39;;;;;;;38.47;30.17;;;;;;;5.69;58.69;99386.91;8444905;28;20234;-84
2022/01/25 17:25:42;;;;;;;36.37;27.93;;;;;;;5.72;58.47;99392.03;8448162;28;20426;-83
2022/01/25 17:29:45;;;;;;;39.53;31.40;;;;;;;5.70;58.60;99393.78;8448293;28;20238;-83
2022/01/25 17:33:49;;;;;;;38.50;29.27;;;;;;;5.74;58.56;99387.75;8431845;28;20237;-84
2022/01/25 17:37:53;;;;;;;37.67;29.30;;;;;;;5.77;58.58;99397.16;8413674;28;20230;-84
2022/01/25 17:41:56;;;;;;;32.00;24.73;;;;;;;5.73;58.38;99385.19;8413887;28;20230;-85
2022/01/25 17:46:00;;;;;;;34.20;25.63;;;;;;;5.66;58.69;99386.94;8424251;28;20249;-84
2022/01/25 17:50:06;;;;;;;31.13;25.40;;;;;;;5.65;58.44;99401.50;8427376;28;20233;-82
2022/01/25 17:54:10;;;;;;;33.10;26.20;;;;;;;5.79;58.37;99411.75;8425769;28;20233;-83
2022/01/25 17:58:13;;;;;;;34.83;25.60;;;;;;;5.77;58.51;99412.59;8424060;28;20223;-82
2022/01/25 18:02:22;;;;;;;34.97;26.70;;;;;;;5.77;58.93;99418.63;8413534;28;20233;-81
2022/01/25 18:06:28;;;;;;;34.70;25.80;;;;;;;5.77;58.05;99413.47;8413485;28;20235;-81
2022/01/25 18:10:31;;;;;;;36.43;26.37;;;;;;;5.79;58.37;99416.03;8413686;28;20518;-82
2022/01/25 18:14:34;;;;;;;33.80;24.37;;;;;;;5.77;58.28;99422.88;8413315;28;20222;-80
2022/01/25 18:18:37;;;;;;;33.37;24.00;;;;;;;5.73;57.97;99422.06;8416030;28;20317;-81
2022/01/25 18:22:50;;;;;;;33.13;25.03;;;;;;;5.73;58.41;99421.16;8420233;28;20230;-81
2022/01/25 18:26:54;;;;;;;30.73;24.23;;;;;;;5.73;58.71;99419.47;8420118;28;20394;-84
2022/01/25 18:30:57;;;;;;;31.83;23.97;;;;;;;5.65;58.38;99411.78;8418430;28;20297;-82
2022/01/25 18:35:00;;;;;;;38.23;24.87;;;;;;;5.72;58.75;99428.03;8419915;28;20253;-81
2022/01/25 18:39:09;;;;;;;32.77;24.20;;;;;;;5.94;59.11;99427.97;8418863;28;20240;-81
2022/01/25 18:43:16;;;;;;;79.37;47.43;;;;;;;8.29;78.27;99420.38;8419690;28;20235;-82
2022/01/25 18:47:19;;;;;;;42.67;29.57;;;;;;;9.24;57.31;99421.69;8419919;28;20231;-82
2022/01/25 18:51:22;;;;;;;30.63;24.27;;;;;;;7.91;52.85;99416.50;8418779;28;20231;-83
2022/01/25 18:55:27;;;;;;;35.17;24.77;;;;;;;7.14;54.46;99422.31;8431397;28;20252;-82
2022/01/25 18:59:31;;;;;;;31.10;23.73;;;;;;;6.72;55.44;99417.44;8433572;28;20226;-82
2022/01/25 19:03:35;;;;;;;29.80;23.73;;;;;;;6.43;56.23;99410.69;8455125;28;20541;-82
2022/01/25 19:07:39;;;;;;;33.20;25.67;;;;;;;6.36;56.35;99415.88;8453760;28;20234;-83
2022/01/25 19:11:46;;;;;;;29.43;23.13;;;;;;;6.23;56.64;99410.78;8454625;28;20234;-82
2022/01/25 19:15:49;;;;;;;31.43;23.63;;;;;;;6.18;56.89;99409.94;8454871;28;20241;-82
2022/01/25 19:19:52;;;;;;;27.87;22.10;;;;;;;6.11;57.26;99410.84;8455706;28;20236;-82
2022/01/25 19:23:55;;;;;;;29.20;22.73;;;;;;;6.01;57.05;99407.44;8455054;28;20518;-83
2022/01/25 19:28:00;;;;;;;27.93;21.90;;;;;;;6.04;57.27;99406.59;8454656;28;20234;-82
2022/01/25 19:32:04;;;;;;;26.27;18.83;;;;;;;6.03;56.73;99407.44;8444796;28;20518;-82
2022/01/25 19:36:07;;;;;;;22.87;18.20;;;;;;;5.98;56.51;99411.75;8422234;28;20223;-83
2022/01/25 19:40:10;;;;;;;18.80;15.80;;;;;;;6.00;56.77;99397.16;8417539;28;20226;-83
2022/01/25 19:44:15;;;;;;;22.17;16.77;;;;;;;6.00;56.55;99398.00;8417374;28;20230;-82
2022/01/25 19:48:18;;;;;;;23.97;18.53;;;;;;;6.00;56.84;99399.75;8417479;28;20235;-83
2022/01/25 19:52:28;;;;;;;23.80;19.35;;;;;;;6.24;57.40;99396.19;8417367;28;20412;-83
2022/01/25 19:56:34;;;;;;;25.90;19.90;;;;;;;6.13;56.96;99398.84;8418216;28;20413;-83
2022/01/25 20:00:44;;;;;;;24.33;18.67;;;;;;;5.99;56.78;99391.16;8425182;28;20243;-84
2022/01/25 20:04:49;;;;;;;25.30;19.50;;;;;;;5.90;57.13;99396.28;8420147;28;20237;-83
2022/01/25 20:08:52;;;;;;;26.90;21.33;;;;;;;5.87;57.13;99399.72;8420802;28;20223;-83
2022/01/25 20:12:55;;;;;;;23.53;17.57;;;;;;;5.93;56.91;99398.84;8420421;28;20226;-83
2022/01/25 20:17:21;;;;;;;23.17;17.50;;;;;;;5.87;56.83;99393.72;8421854;28;20226;-84
2022/01/25 20:21:29;;;;;;;25.23;19.53;;;;;;;5.88;57.11;99393.75;8421734;28;20231;-83
2022/01/25 20:25:41;;;;;;;23.70;18.07;;;;;;;5.89;57.16;99394.59;8420625;28;20237;-84
2022/01/25 20:29:52;;;;;;;23.30;18.37;;;;;;;5.86;57.20;99380.03;8424004;28;20223;-83
2022/01/25 20:33:58;;;;;;;23.50;19.60;;;;;;;5.89;57.13;99384.31;8431563;28;20211;-83
2022/01/25 20:38:01;;;;;;;20.17;17.13;;;;;;;5.84;57.21;99375.72;8433375;28;20235;-83